sensor_id;sensor_type;location;lat;lon;timestamp;P1;durP1;ratioP1;P2;durP2;ratioP2
60588;SDS011;46421;48.610;9.334;2024-02-23T00:01:58;0.63;;;0.10;;
60588;SDS011;46421;48.610;9.334;2024-02-23T00:04:23;0.53;;;0.10;;
60588;SDS011;46421;48.610;9.334;2024-02-23T00:06:48;0.00;;;0.00;;
60588;SDS011;46421;48.610;9.334;2024-02-23T00:09:14;2.17;;;0.13;;
60588;SDS011;46421;48.610;9.334;2024-02-23T00:11:40;0.00;;;0.00;;
60588;SDS011;46421;48.610;9.334;2024-02-23T00:14:09;0.15;;;0.15;;
60588;SDS011;46421;48.610;9.334;2024-02-23T00:16:38;0.45;;;0.08;;
60588;SDS011;46421;48.610;9.334;2024-02-23T00:19:05;0.00;;;0.00;;
60588;SDS011;46421;48.610;9.334;2024-02-23T00:21:31;0.35;;;0.10;;
60588;SDS011;46421;48.610;9.334;2024-02-23T00:23:56;0.10;;;0.03;;
60588;SDS011;46421;48.610;9.334;2024-02-23T00:26:21;0.00;;;0.00;;
60588;SDS011;46421;48.610;9.334;2024-02-23T00:28:47;0.00;;;0.00;;
60588;SDS011;46421;48.610;9.334;2024-02-23T00:31:12;0.00;;;0.00;;
60588;SDS011;46421;48.610;9.334;2024-02-23T00:33:37;0.00;;;0.00;;
60588;SDS011;46421;48.610;9.334;2024-02-23T00:36:07;1.73;;;0.20;;
60588;SDS011;46421;48.610;9.334;2024-02-23T00:38:32;0.00;;;0.00;;
60588;SDS011;46421;48.610;9.334;2024-02-23T00:40:58;0.00;;;0.00;;
60588;SDS011;46421;48.610;9.334;2024-02-23T00:43:23;0.10;;;0.10;;
60588;SDS011;46421;48.610;9.334;2024-02-23T00:45:48;0.25;;;0.10;;
60588;SDS011;46421;48.610;9.334;2024-02-23T00:48:14;1.20;;;0.00;;
60588;SDS011;46421;48.610;9.334;2024-02-23T00:50:39;0.30;;;0.00;;
60588;SDS011;46421;48.610;9.334;2024-02-23T00:53:05;0.00;;;0.00;;
60588;SDS011;46421;48.610;9.334;2024-02-23T00:55:30;0.93;;;0.28;;
60588;SDS011;46421;48.610;9.334;2024-02-23T00:57:55;0.03;;;0.03;;
60588;SDS011;46421;48.610;9.334;2024-02-23T01:00:21;0.05;;;0.03;;
60588;SDS011;46421;48.610;9.334;2024-02-23T01:02:46;1.60;;;0.00;;
60588;SDS011;46421;48.610;9.334;2024-02-23T01:05:13;0.80;;;0.63;;
60588;SDS011;46421;48.610;9.334;2024-02-23T01:07:38;0.57;;;0.05;;
60588;SDS011;46421;48.610;9.334;2024-02-23T01:10:03;0.75;;;0.40;;
60588;SDS011;46421;48.610;9.334;2024-02-23T01:12:29;0.17;;;0.10;;
60588;SDS011;46421;48.610;9.334;2024-02-23T01:14:55;0.25;;;0.10;;
60588;SDS011;46421;48.610;9.334;2024-02-23T01:17:20;0.57;;;0.40;;
60588;SDS011;46421;48.610;9.334;2024-02-23T01:19:46;1.20;;;0.15;;
60588;SDS011;46421;48.610;9.334;2024-02-23T01:22:11;0.83;;;0.20;;
60588;SDS011;46421;48.610;9.334;2024-02-23T01:24:36;0.10;;;0.00;;
60588;SDS011;46421;48.610;9.334;2024-02-23T01:27:02;0.90;;;0.20;;
60588;SDS011;46421;48.610;9.334;2024-02-23T01:29:27;0.30;;;0.20;;
60588;SDS011;46421;48.610;9.334;2024-02-23T01:31:53;0.80;;;0.20;;
60588;SDS011;46421;48.610;9.334;2024-02-23T01:34:21;0.25;;;0.00;;
60588;SDS011;46421;48.610;9.334;2024-02-23T01:36:47;1.10;;;0.22;;
60588;SDS011;46421;48.610;9.334;2024-02-23T01:39:15;0.38;;;0.00;;
60588;SDS011;46421;48.610;9.334;2024-02-23T01:41:40;1.90;;;0.27;;
60588;SDS011;46421;48.610;9.334;2024-02-23T01:44:06;0.08;;;0.00;;
60588;SDS011;46421;48.610;9.334;2024-02-23T01:46:31;1.50;;;0.10;;
60588;SDS011;46421;48.610;9.334;2024-02-23T01:48:57;0.32;;;0.00;;
60588;SDS011;46421;48.610;9.334;2024-02-23T01:51:23;0.00;;;0.00;;
60588;SDS011;46421;48.610;9.334;2024-02-23T01:53:49;0.05;;;0.00;;
60588;SDS011;46421;48.610;9.334;2024-02-23T01:56:15;0.10;;;0.10;;
60588;SDS011;46421;48.610;9.334;2024-02-23T01:58:42;0.10;;;0.10;;
60588;SDS011;46421;48.610;9.334;2024-02-23T02:01:08;0.57;;;0.30;;
60588;SDS011;46421;48.610;9.334;2024-02-23T02:03:33;1.40;;;0.10;;
60588;SDS011;46421;48.610;9.334;2024-02-23T02:05:59;1.77;;;0.20;;
60588;SDS011;46421;48.610;9.334;2024-02-23T02:08:25;0.00;;;0.00;;
60588;SDS011;46421;48.610;9.334;2024-02-23T02:10:51;0.10;;;0.10;;
60588;SDS011;46421;48.610;9.334;2024-02-23T02:13:16;0.00;;;0.00;;
60588;SDS011;46421;48.610;9.334;2024-02-23T02:15:42;0.28;;;0.10;;
60588;SDS011;46421;48.610;9.334;2024-02-23T02:18:09;0.35;;;0.10;;
60588;SDS011;46421;48.610;9.334;2024-02-23T02:20:34;0.08;;;0.00;;
60588;SDS011;46421;48.610;9.334;2024-02-23T02:23:01;0.17;;;0.03;;
60588;SDS011;46421;48.610;9.334;2024-02-23T02:25:26;1.10;;;0.20;;
60588;SDS011;46421;48.610;9.334;2024-02-23T02:27:52;0.28;;;0.10;;
60588;SDS011;46421;48.610;9.334;2024-02-23T02:30:17;0.43;;;0.10;;
60588;SDS011;46421;48.610;9.334;2024-02-23T02:32:42;0.30;;;0.10;;
60588;SDS011;46421;48.610;9.334;2024-02-23T02:35:10;0.43;;;0.10;;
60588;SDS011;46421;48.610;9.334;2024-02-23T02:37:35;0.40;;;0.08;;
60588;SDS011;46421;48.610;9.334;2024-02-23T02:40:01;0.17;;;0.10;;
60588;SDS011;46421;48.610;9.334;2024-02-23T02:42:27;0.63;;;0.10;;
60588;SDS011;46421;48.610;9.334;2024-02-23T02:44:53;1.27;;;0.15;;
60588;SDS011;46421;48.610;9.334;2024-02-23T02:47:19;0.95;;;0.15;;
60588;SDS011;46421;48.610;9.334;2024-02-23T02:49:44;0.00;;;0.00;;
60588;SDS011;46421;48.610;9.334;2024-02-23T02:52:09;0.40;;;0.10;;
60588;SDS011;46421;48.610;9.334;2024-02-23T02:54:35;0.08;;;0.08;;
60588;SDS011;46421;48.610;9.334;2024-02-23T02:57:00;0.00;;;0.00;;
60588;SDS011;46421;48.610;9.334;2024-02-23T02:59:25;0.00;;;0.00;;
60588;SDS011;46421;48.610;9.334;2024-02-23T03:01:51;0.13;;;0.08;;
60588;SDS011;46421;48.610;9.334;2024-02-23T03:04:16;0.00;;;0.00;;
60588;SDS011;46421;48.610;9.334;2024-02-23T03:06:41;0.00;;;0.00;;
60588;SDS011;46421;48.610;9.334;2024-02-23T03:09:07;0.37;;;0.10;;
60588;SDS011;46421;48.610;9.334;2024-02-23T03:11:32;0.15;;;0.00;;
60588;SDS011;46421;48.610;9.334;2024-02-23T03:13:58;1.75;;;0.10;;
60588;SDS011;46421;48.610;9.334;2024-02-23T03:16:23;0.05;;;0.00;;
60588;SDS011;46421;48.610;9.334;2024-02-23T03:21:19;0.00;;;0.00;;
60588;SDS011;46421;48.610;9.334;2024-02-23T03:23:44;0.00;;;0.00;;
60588;SDS011;46421;48.610;9.334;2024-02-23T03:26:10;0.10;;;0.00;;
60588;SDS011;46421;48.610;9.334;2024-02-23T03:28:35;0.10;;;0.05;;
60588;SDS011;46421;48.610;9.334;2024-02-23T03:31:01;0.37;;;0.10;;
60588;SDS011;46421;48.610;9.334;2024-02-23T03:33:26;0.00;;;0.00;;
60588;SDS011;46421;48.610;9.334;2024-02-23T03:35:51;0.35;;;0.05;;
60588;SDS011;46421;48.610;9.334;2024-02-23T03:38:17;0.20;;;0.05;;
60588;SDS011;46421;48.610;9.334;2024-02-23T03:40:42;0.15;;;0.00;;
60588;SDS011;46421;48.610;9.334;2024-02-23T03:43:08;0.10;;;0.10;;
60588;SDS011;46421;48.610;9.334;2024-02-23T03:45:33;0.55;;;0.20;;
60588;SDS011;46421;48.610;9.334;2024-02-23T03:47:59;0.23;;;0.00;;
60588;SDS011;46421;48.610;9.334;2024-02-23T03:50:24;0.00;;;0.00;;
60588;SDS011;46421;48.610;9.334;2024-02-23T03:52:50;1.08;;;0.10;;
60588;SDS011;46421;48.610;9.334;2024-02-23T03:55:15;0.20;;;0.10;;
60588;SDS011;46421;48.610;9.334;2024-02-23T03:57:41;0.40;;;0.20;;
60588;SDS011;46421;48.610;9.334;2024-02-23T04:00:06;0.08;;;0.08;;
60588;SDS011;46421;48.610;9.334;2024-02-23T04:02:32;1.50;;;0.20;;
60588;SDS011;46421;48.610;9.334;2024-02-23T04:04:58;1.17;;;0.40;;
60588;SDS011;46421;48.610;9.334;2024-02-23T04:07:23;0.10;;;0.00;;
60588;SDS011;46421;48.610;9.334;2024-02-23T04:09:49;0.47;;;0.22;;
60588;SDS011;46421;48.610;9.334;2024-02-23T04:12:18;0.73;;;0.20;;
60588;SDS011;46421;48.610;9.334;2024-02-23T04:14:44;0.77;;;0.30;;
60588;SDS011;46421;48.610;9.334;2024-02-23T04:17:10;0.40;;;0.10;;
60588;SDS011;46421;48.610;9.334;2024-02-23T04:19:37;0.88;;;0.22;;
60588;SDS011;46421;48.610;9.334;2024-02-23T04:22:02;0.73;;;0.30;;
60588;SDS011;46421;48.610;9.334;2024-02-23T04:24:28;0.30;;;0.30;;
60588;SDS011;46421;48.610;9.334;2024-02-23T04:26:53;0.10;;;0.10;;
60588;SDS011;46421;48.610;9.334;2024-02-23T04:29:19;1.63;;;0.30;;
60588;SDS011;46421;48.610;9.334;2024-02-23T04:31:44;0.10;;;0.10;;
60588;SDS011;46421;48.610;9.334;2024-02-23T04:34:10;0.33;;;0.10;;
60588;SDS011;46421;48.610;9.334;2024-02-23T04:36:35;1.10;;;0.20;;
60588;SDS011;46421;48.610;9.334;2024-02-23T04:39:00;0.55;;;0.17;;
60588;SDS011;46421;48.610;9.334;2024-02-23T04:41:26;0.38;;;0.10;;
60588;SDS011;46421;48.610;9.334;2024-02-23T04:43:51;0.00;;;0.00;;
60588;SDS011;46421;48.610;9.334;2024-02-23T04:46:18;0.95;;;0.28;;
60588;SDS011;46421;48.610;9.334;2024-02-23T04:48:43;0.63;;;0.30;;
60588;SDS011;46421;48.610;9.334;2024-02-23T04:51:09;2.33;;;0.20;;
60588;SDS011;46421;48.610;9.334;2024-02-23T04:53:37;1.48;;;0.15;;
60588;SDS011;46421;48.610;9.334;2024-02-23T04:56:03;0.47;;;0.10;;
60588;SDS011;46421;48.610;9.334;2024-02-23T04:58:28;1.75;;;0.15;;
60588;SDS011;46421;48.610;9.334;2024-02-23T05:00:54;1.05;;;0.28;;
60588;SDS011;46421;48.610;9.334;2024-02-23T05:03:20;0.43;;;0.00;;
60588;SDS011;46421;48.610;9.334;2024-02-23T05:05:45;0.10;;;0.00;;
60588;SDS011;46421;48.610;9.334;2024-02-23T05:08:11;1.17;;;0.30;;
60588;SDS011;46421;48.610;9.334;2024-02-23T05:10:36;1.60;;;0.20;;
60588;SDS011;46421;48.610;9.334;2024-02-23T05:13:02;0.90;;;0.10;;
60588;SDS011;46421;48.610;9.334;2024-02-23T05:15:27;0.00;;;0.00;;
60588;SDS011;46421;48.610;9.334;2024-02-23T05:17:52;1.27;;;0.30;;
60588;SDS011;46421;48.610;9.334;2024-02-23T05:20:18;1.65;;;0.40;;
60588;SDS011;46421;48.610;9.334;2024-02-23T05:22:43;0.43;;;0.30;;
60588;SDS011;46421;48.610;9.334;2024-02-23T05:25:08;0.63;;;0.20;;
60588;SDS011;46421;48.610;9.334;2024-02-23T05:27:34;1.10;;;0.40;;
60588;SDS011;46421;48.610;9.334;2024-02-23T05:29:59;1.17;;;0.30;;
60588;SDS011;46421;48.610;9.334;2024-02-23T05:32:25;2.10;;;0.15;;
60588;SDS011;46421;48.610;9.334;2024-02-23T05:34:50;0.73;;;0.35;;
60588;SDS011;46421;48.610;9.334;2024-02-23T05:37:18;1.83;;;0.20;;
60588;SDS011;46421;48.610;9.334;2024-02-23T05:39:44;0.22;;;0.10;;
60588;SDS011;46421;48.610;9.334;2024-02-23T05:42:11;0.57;;;0.20;;
60588;SDS011;46421;48.610;9.334;2024-02-23T05:44:39;1.48;;;0.20;;
60588;SDS011;46421;48.610;9.334;2024-02-23T05:47:05;0.93;;;0.28;;
60588;SDS011;46421;48.610;9.334;2024-02-23T05:49:30;0.25;;;0.10;;
60588;SDS011;46421;48.610;9.334;2024-02-23T05:51:55;0.08;;;0.03;;
60588;SDS011;46421;48.610;9.334;2024-02-23T05:54:21;0.17;;;0.15;;
60588;SDS011;46421;48.610;9.334;2024-02-23T05:56:46;1.13;;;0.10;;
60588;SDS011;46421;48.610;9.334;2024-02-23T05:59:12;1.90;;;0.27;;
60588;SDS011;46421;48.610;9.334;2024-02-23T06:01:37;0.65;;;0.50;;
60588;SDS011;46421;48.610;9.334;2024-02-23T06:04:03;0.60;;;0.20;;
60588;SDS011;46421;48.610;9.334;2024-02-23T06:06:28;0.77;;;0.30;;
60588;SDS011;46421;48.610;9.334;2024-02-23T06:08:54;0.43;;;0.22;;
60588;SDS011;46421;48.610;9.334;2024-02-23T06:11:19;2.85;;;0.40;;
60588;SDS011;46421;48.610;9.334;2024-02-23T06:13:44;0.85;;;0.15;;
60588;SDS011;46421;48.610;9.334;2024-02-23T06:16:10;1.93;;;0.40;;
60588;SDS011;46421;48.610;9.334;2024-02-23T06:18:36;0.63;;;0.20;;
60588;SDS011;46421;48.610;9.334;2024-02-23T06:21:10;0.60;;;0.13;;
60588;SDS011;46421;48.610;9.334;2024-02-23T06:23:38;1.08;;;0.30;;
60588;SDS011;46421;48.610;9.334;2024-02-23T06:26:04;0.25;;;0.25;;
60588;SDS011;46421;48.610;9.334;2024-02-23T06:28:30;2.05;;;0.60;;
60588;SDS011;46421;48.610;9.334;2024-02-23T06:30:56;1.25;;;0.30;;
60588;SDS011;46421;48.610;9.334;2024-02-23T06:33:21;0.55;;;0.28;;
60588;SDS011;46421;48.610;9.334;2024-02-23T06:35:49;0.73;;;0.28;;
60588;SDS011;46421;48.610;9.334;2024-02-23T06:38:15;0.45;;;0.28;;
60588;SDS011;46421;48.610;9.334;2024-02-23T06:40:40;0.97;;;0.30;;
60588;SDS011;46421;48.610;9.334;2024-02-23T06:43:05;1.83;;;0.60;;
60588;SDS011;46421;48.610;9.334;2024-02-23T06:45:31;0.85;;;0.17;;
60588;SDS011;46421;48.610;9.334;2024-02-23T06:47:56;0.85;;;0.22;;
60588;SDS011;46421;48.610;9.334;2024-02-23T06:50:22;1.70;;;0.30;;
60588;SDS011;46421;48.610;9.334;2024-02-23T06:52:47;2.92;;;0.35;;
60588;SDS011;46421;48.610;9.334;2024-02-23T06:57:39;0.97;;;0.47;;
60588;SDS011;46421;48.610;9.334;2024-02-23T07:00:05;0.88;;;0.22;;
60588;SDS011;46421;48.610;9.334;2024-02-23T07:02:32;0.68;;;0.38;;
60588;SDS011;46421;48.610;9.334;2024-02-23T07:05:01;2.33;;;0.40;;
60588;SDS011;46421;48.610;9.334;2024-02-23T07:07:29;1.98;;;0.50;;
60588;SDS011;46421;48.610;9.334;2024-02-23T07:09:55;2.53;;;0.63;;
60588;SDS011;46421;48.610;9.334;2024-02-23T07:12:21;0.90;;;0.35;;
60588;SDS011;46421;48.610;9.334;2024-02-23T07:14:46;1.42;;;0.47;;
60588;SDS011;46421;48.610;9.334;2024-02-23T07:17:16;0.60;;;0.30;;
60588;SDS011;46421;48.610;9.334;2024-02-23T07:19:42;1.80;;;0.40;;
60588;SDS011;46421;48.610;9.334;2024-02-23T07:22:07;1.02;;;0.47;;
60588;SDS011;46421;48.610;9.334;2024-02-23T07:24:32;1.17;;;0.40;;
60588;SDS011;46421;48.610;9.334;2024-02-23T07:26:58;1.58;;;0.43;;
60588;SDS011;46421;48.610;9.334;2024-02-23T07:29:23;2.38;;;0.50;;
60588;SDS011;46421;48.610;9.334;2024-02-23T07:31:49;0.88;;;0.30;;
60588;SDS011;46421;48.610;9.334;2024-02-23T07:34:14;0.80;;;0.30;;
60588;SDS011;46421;48.610;9.334;2024-02-23T07:36:39;0.47;;;0.20;;
60588;SDS011;46421;48.610;9.334;2024-02-23T07:39:05;2.63;;;0.47;;
60588;SDS011;46421;48.610;9.334;2024-02-23T07:41:31;1.35;;;0.47;;
60588;SDS011;46421;48.610;9.334;2024-02-23T07:43:56;1.95;;;0.43;;
60588;SDS011;46421;48.610;9.334;2024-02-23T07:46:22;0.63;;;0.30;;
60588;SDS011;46421;48.610;9.334;2024-02-23T07:48:48;1.92;;;0.43;;
60588;SDS011;46421;48.610;9.334;2024-02-23T07:51:13;1.40;;;0.40;;
60588;SDS011;46421;48.610;9.334;2024-02-23T07:53:38;1.90;;;0.50;;
60588;SDS011;46421;48.610;9.334;2024-02-23T07:56:04;0.93;;;0.40;;
60588;SDS011;46421;48.610;9.334;2024-02-23T07:58:29;1.00;;;0.40;;
60588;SDS011;46421;48.610;9.334;2024-02-23T08:00:55;2.08;;;0.45;;
60588;SDS011;46421;48.610;9.334;2024-02-23T08:03:20;2.10;;;0.60;;
60588;SDS011;46421;48.610;9.334;2024-02-23T08:05:45;1.40;;;0.40;;
60588;SDS011;46421;48.610;9.334;2024-02-23T08:08:11;0.88;;;0.40;;
60588;SDS011;46421;48.610;9.334;2024-02-23T08:10:36;2.22;;;0.57;;
60588;SDS011;46421;48.610;9.334;2024-02-23T08:13:02;3.30;;;0.70;;
60588;SDS011;46421;48.610;9.334;2024-02-23T08:15:28;1.45;;;0.40;;
60588;SDS011;46421;48.610;9.334;2024-02-23T08:17:54;2.30;;;0.50;;
60588;SDS011;46421;48.610;9.334;2024-02-23T08:20:19;2.83;;;0.70;;
60588;SDS011;46421;48.610;9.334;2024-02-23T08:22:44;3.33;;;0.60;;
60588;SDS011;46421;48.610;9.334;2024-02-23T08:25:10;1.83;;;0.50;;
60588;SDS011;46421;48.610;9.334;2024-02-23T08:27:35;1.10;;;0.60;;
60588;SDS011;46421;48.610;9.334;2024-02-23T08:30:01;2.38;;;0.50;;
60588;SDS011;46421;48.610;9.334;2024-02-23T08:32:28;2.47;;;0.63;;
60588;SDS011;46421;48.610;9.334;2024-02-23T08:34:53;0.63;;;0.27;;
60588;SDS011;46421;48.610;9.334;2024-02-23T08:37:24;1.52;;;0.38;;
60588;SDS011;46421;48.610;9.334;2024-02-23T08:39:52;0.60;;;0.30;;
60588;SDS011;46421;48.610;9.334;2024-02-23T08:42:18;1.50;;;0.50;;
60588;SDS011;46421;48.610;9.334;2024-02-23T08:44:43;1.15;;;0.40;;
60588;SDS011;46421;48.610;9.334;2024-02-23T08:47:09;1.70;;;0.75;;
60588;SDS011;46421;48.610;9.334;2024-02-23T08:49:34;0.28;;;0.25;;
60588;SDS011;46421;48.610;9.334;2024-02-23T08:52:00;5.93;;;0.75;;
60588;SDS011;46421;48.610;9.334;2024-02-23T08:54:25;2.40;;;0.80;;
60588;SDS011;46421;48.610;9.334;2024-02-23T08:56:50;3.88;;;1.40;;
60588;SDS011;46421;48.610;9.334;2024-02-23T08:59:16;1.93;;;0.60;;
60588;SDS011;46421;48.610;9.334;2024-02-23T09:01:41;2.13;;;0.77;;
60588;SDS011;46421;48.610;9.334;2024-02-23T09:04:07;1.13;;;0.30;;
60588;SDS011;46421;48.610;9.334;2024-02-23T09:06:32;1.52;;;0.57;;
60588;SDS011;46421;48.610;9.334;2024-02-23T09:08:58;1.50;;;0.47;;
60588;SDS011;46421;48.610;9.334;2024-02-23T09:11:23;2.13;;;0.45;;
60588;SDS011;46421;48.610;9.334;2024-02-23T09:13:49;1.90;;;0.40;;
60588;SDS011;46421;48.610;9.334;2024-02-23T09:16:14;1.63;;;0.50;;
60588;SDS011;46421;48.610;9.334;2024-02-23T09:18:40;3.30;;;0.47;;
60588;SDS011;46421;48.610;9.334;2024-02-23T09:21:05;1.75;;;0.60;;
60588;SDS011;46421;48.610;9.334;2024-02-23T09:23:31;3.33;;;0.80;;
60588;SDS011;46421;48.610;9.334;2024-02-23T09:25:57;2.28;;;0.85;;
60588;SDS011;46421;48.610;9.334;2024-02-23T09:28:22;4.15;;;0.85;;
60588;SDS011;46421;48.610;9.334;2024-02-23T09:30:48;5.45;;;1.55;;
60588;SDS011;46421;48.610;9.334;2024-02-23T09:33:13;1.08;;;0.40;;
60588;SDS011;46421;48.610;9.334;2024-02-23T09:35:39;2.27;;;0.50;;
60588;SDS011;46421;48.610;9.334;2024-02-23T09:38:04;1.70;;;0.30;;
60588;SDS011;46421;48.610;9.334;2024-02-23T09:40:29;0.40;;;0.30;;
60588;SDS011;46421;48.610;9.334;2024-02-23T09:42:55;0.98;;;0.40;;
60588;SDS011;46421;48.610;9.334;2024-02-23T09:45:22;1.05;;;0.50;;
60588;SDS011;46421;48.610;9.334;2024-02-23T09:47:48;0.70;;;0.45;;
60588;SDS011;46421;48.610;9.334;2024-02-23T09:50:14;2.20;;;0.73;;
60588;SDS011;46421;48.610;9.334;2024-02-23T09:52:40;0.82;;;0.70;;
60588;SDS011;46421;48.610;9.334;2024-02-23T09:55:06;1.45;;;0.30;;
60588;SDS011;46421;48.610;9.334;2024-02-23T09:57:31;3.03;;;0.60;;
60588;SDS011;46421;48.610;9.334;2024-02-23T09:59:56;0.77;;;0.30;;
60588;SDS011;46421;48.610;9.334;2024-02-23T10:02:22;1.17;;;0.50;;
60588;SDS011;46421;48.610;9.334;2024-02-23T10:04:47;3.00;;;0.30;;
60588;SDS011;46421;48.610;9.334;2024-02-23T10:07:16;1.58;;;0.47;;
60588;SDS011;46421;48.610;9.334;2024-02-23T10:09:42;1.50;;;0.40;;
60588;SDS011;46421;48.610;9.334;2024-02-23T10:12:07;3.15;;;0.40;;
60588;SDS011;46421;48.610;9.334;2024-02-23T10:14:33;2.15;;;0.57;;
60588;SDS011;46421;48.610;9.334;2024-02-23T10:16:59;1.55;;;0.57;;
60588;SDS011;46421;48.610;9.334;2024-02-23T10:19:25;1.52;;;0.22;;
60588;SDS011;46421;48.610;9.334;2024-02-23T10:21:54;3.25;;;0.68;;
60588;SDS011;46421;48.610;9.334;2024-02-23T10:24:19;1.00;;;0.40;;
60588;SDS011;46421;48.610;9.334;2024-02-23T10:26:45;1.80;;;0.47;;
60588;SDS011;46421;48.610;9.334;2024-02-23T10:29:10;0.73;;;0.30;;
60588;SDS011;46421;48.610;9.334;2024-02-23T10:31:35;2.08;;;0.55;;
60588;SDS011;46421;48.610;9.334;2024-02-23T10:34:07;2.28;;;0.30;;
60588;SDS011;46421;48.610;9.334;2024-02-23T10:36:41;0.85;;;0.38;;
60588;SDS011;46421;48.610;9.334;2024-02-23T10:39:07;2.00;;;0.50;;
60588;SDS011;46421;48.610;9.334;2024-02-23T10:41:34;1.63;;;0.40;;
60588;SDS011;46421;48.610;9.334;2024-02-23T10:44:02;2.40;;;0.47;;
60588;SDS011;46421;48.610;9.334;2024-02-23T10:46:29;1.27;;;0.38;;
60588;SDS011;46421;48.610;9.334;2024-02-23T10:48:56;0.65;;;0.30;;
60588;SDS011;46421;48.610;9.334;2024-02-23T10:51:22;3.15;;;0.40;;
60588;SDS011;46421;48.610;9.334;2024-02-23T10:56:15;1.73;;;0.40;;
60588;SDS011;46421;48.610;9.334;2024-02-23T10:58:40;1.00;;;0.30;;
60588;SDS011;46421;48.610;9.334;2024-02-23T11:01:07;1.93;;;0.50;;
60588;SDS011;46421;48.610;9.334;2024-02-23T11:03:34;2.10;;;0.30;;
60588;SDS011;46421;48.610;9.334;2024-02-23T11:06:00;1.88;;;0.30;;
60588;SDS011;46421;48.610;9.334;2024-02-23T11:08:29;0.38;;;0.13;;
60588;SDS011;46421;48.610;9.334;2024-02-23T11:10:54;1.67;;;0.60;;
60588;SDS011;46421;48.610;9.334;2024-02-23T11:13:36;2.63;;;0.57;;
60588;SDS011;46421;48.610;9.334;2024-02-23T11:16:05;2.17;;;0.43;;
60588;SDS011;46421;48.610;9.334;2024-02-23T11:18:31;2.15;;;0.47;;
60588;SDS011;46421;48.610;9.334;2024-02-23T11:21:01;2.50;;;0.30;;
60588;SDS011;46421;48.610;9.334;2024-02-23T11:23:42;1.08;;;0.30;;
60588;SDS011;46421;48.610;9.334;2024-02-23T11:26:12;1.75;;;0.50;;
60588;SDS011;46421;48.610;9.334;2024-02-23T11:28:48;6.40;;;0.68;;
60588;SDS011;46421;48.610;9.334;2024-02-23T11:31:28;1.50;;;0.68;;
60588;SDS011;46421;48.610;9.334;2024-02-23T11:33:55;1.85;;;0.38;;
60588;SDS011;46421;48.610;9.334;2024-02-23T11:36:34;5.50;;;0.45;;
60588;SDS011;46421;48.610;9.334;2024-02-23T11:39:01;1.90;;;0.40;;
60588;SDS011;46421;48.610;9.334;2024-02-23T11:41:27;3.30;;;0.68;;
60588;SDS011;46421;48.610;9.334;2024-02-23T11:43:53;3.17;;;0.57;;
60588;SDS011;46421;48.610;9.334;2024-02-23T11:46:23;1.25;;;0.45;;
60588;SDS011;46421;48.610;9.334;2024-02-23T11:48:48;0.57;;;0.20;;
60588;SDS011;46421;48.610;9.334;2024-02-23T11:51:20;2.60;;;0.40;;
60588;SDS011;46421;48.610;9.334;2024-02-23T11:53:47;1.98;;;0.50;;
60588;SDS011;46421;48.610;9.334;2024-02-23T11:56:13;0.65;;;0.30;;
60588;SDS011;46421;48.610;9.334;2024-02-23T11:58:39;4.25;;;0.57;;
60588;SDS011;46421;48.610;9.334;2024-02-23T12:01:05;4.90;;;0.50;;
60588;SDS011;46421;48.610;9.334;2024-02-23T12:03:32;1.77;;;0.35;;
60588;SDS011;46421;48.610;9.334;2024-02-23T12:05:57;2.70;;;0.70;;
60588;SDS011;46421;48.610;9.334;2024-02-23T12:08:26;1.85;;;0.40;;
60588;SDS011;46421;48.610;9.334;2024-02-23T12:10:55;1.63;;;0.40;;
60588;SDS011;46421;48.610;9.334;2024-02-23T12:13:21;1.85;;;0.52;;
60588;SDS011;46421;48.610;9.334;2024-02-23T12:15:47;1.25;;;0.60;;
60588;SDS011;46421;48.610;9.334;2024-02-23T12:18:13;1.27;;;0.57;;
60588;SDS011;46421;48.610;9.334;2024-02-23T12:20:39;0.68;;;0.30;;
60588;SDS011;46421;48.610;9.334;2024-02-23T12:23:05;2.72;;;0.85;;
60588;SDS011;46421;48.610;9.334;2024-02-23T12:25:33;2.05;;;0.57;;
60588;SDS011;46421;48.610;9.334;2024-02-23T12:28:02;6.22;;;0.60;;
60588;SDS011;46421;48.610;9.334;2024-02-23T12:30:28;2.67;;;0.77;;
60588;SDS011;46421;48.610;9.334;2024-02-23T12:33:30;5.32;;;0.57;;
60588;SDS011;46421;48.610;9.334;2024-02-23T12:35:48;2.53;;;0.38;;
60588;SDS011;46421;48.610;9.334;2024-02-23T12:38:13;3.17;;;0.57;;
60588;SDS011;46421;48.610;9.334;2024-02-23T12:40:39;1.50;;;0.57;;
60588;SDS011;46421;48.610;9.334;2024-02-23T12:43:04;0.88;;;0.30;;
60588;SDS011;46421;48.610;9.334;2024-02-23T12:45:29;3.97;;;0.60;;
60588;SDS011;46421;48.610;9.334;2024-02-23T12:47:55;2.30;;;0.30;;
60588;SDS011;46421;48.610;9.334;2024-02-23T12:50:20;2.17;;;0.50;;
60588;SDS011;46421;48.610;9.334;2024-02-23T12:52:45;0.93;;;0.28;;
60588;SDS011;46421;48.610;9.334;2024-02-23T12:55:12;3.03;;;0.50;;
60588;SDS011;46421;48.610;9.334;2024-02-23T12:57:37;2.45;;;0.47;;
60588;SDS011;46421;48.610;9.334;2024-02-23T13:00:03;1.33;;;0.35;;
60588;SDS011;46421;48.610;9.334;2024-02-23T13:04:55;1.83;;;0.37;;
60588;SDS011;46421;48.610;9.334;2024-02-23T13:07:20;1.37;;;0.40;;
60588;SDS011;46421;48.610;9.334;2024-02-23T13:09:46;4.50;;;0.77;;
60588;SDS011;46421;48.610;9.334;2024-02-23T13:12:11;0.60;;;0.40;;
60588;SDS011;46421;48.610;9.334;2024-02-23T13:14:37;2.53;;;0.50;;
60588;SDS011;46421;48.610;9.334;2024-02-23T13:17:02;1.67;;;0.50;;
60588;SDS011;46421;48.610;9.334;2024-02-23T13:19:28;1.38;;;0.40;;
60588;SDS011;46421;48.610;9.334;2024-02-23T13:21:54;3.50;;;0.60;;
60588;SDS011;46421;48.610;9.334;2024-02-23T13:24:19;4.03;;;0.98;;
60588;SDS011;46421;48.610;9.334;2024-02-23T13:26:45;1.90;;;0.68;;
60588;SDS011;46421;48.610;9.334;2024-02-23T13:29:11;2.10;;;0.80;;
60588;SDS011;46421;48.610;9.334;2024-02-23T13:31:36;2.63;;;0.52;;
60588;SDS011;46421;48.610;9.334;2024-02-23T13:34:03;0.80;;;0.35;;
60588;SDS011;46421;48.610;9.334;2024-02-23T13:36:28;2.00;;;0.55;;
60588;SDS011;46421;48.610;9.334;2024-02-23T13:38:54;1.60;;;0.60;;
60588;SDS011;46421;48.610;9.334;2024-02-23T13:41:19;2.75;;;0.38;;
60588;SDS011;46421;48.610;9.334;2024-02-23T13:43:44;2.83;;;0.82;;
60588;SDS011;46421;48.610;9.334;2024-02-23T13:46:10;2.13;;;0.57;;
60588;SDS011;46421;48.610;9.334;2024-02-23T13:48:36;5.10;;;1.08;;
60588;SDS011;46421;48.610;9.334;2024-02-23T13:51:01;1.83;;;0.50;;
60588;SDS011;46421;48.610;9.334;2024-02-23T13:53:28;2.75;;;0.60;;
60588;SDS011;46421;48.610;9.334;2024-02-23T13:55:54;3.22;;;0.65;;
60588;SDS011;46421;48.610;9.334;2024-02-23T13:58:19;3.47;;;0.57;;
60588;SDS011;46421;48.610;9.334;2024-02-23T14:00:44;2.65;;;0.77;;
60588;SDS011;46421;48.610;9.334;2024-02-23T14:03:11;2.22;;;0.43;;
60588;SDS011;46421;48.610;9.334;2024-02-23T14:05:41;4.45;;;0.57;;
60588;SDS011;46421;48.610;9.334;2024-02-23T14:08:09;3.00;;;1.23;;
60588;SDS011;46421;48.610;9.334;2024-02-23T14:10:38;2.45;;;0.55;;
60588;SDS011;46421;48.610;9.334;2024-02-23T14:13:03;3.58;;;0.50;;
60588;SDS011;46421;48.610;9.334;2024-02-23T14:15:29;3.15;;;0.50;;
60588;SDS011;46421;48.610;9.334;2024-02-23T14:17:54;4.82;;;0.77;;
60588;SDS011;46421;48.610;9.334;2024-02-23T14:20:19;0.90;;;0.40;;
60588;SDS011;46421;48.610;9.334;2024-02-23T14:22:45;1.15;;;0.60;;
60588;SDS011;46421;48.610;9.334;2024-02-23T14:25:10;3.80;;;0.60;;
60588;SDS011;46421;48.610;9.334;2024-02-23T14:27:36;2.25;;;0.40;;
60588;SDS011;46421;48.610;9.334;2024-02-23T14:30:01;3.50;;;0.73;;
60588;SDS011;46421;48.610;9.334;2024-02-23T14:32:27;2.28;;;0.77;;
60588;SDS011;46421;48.610;9.334;2024-02-23T14:34:52;2.83;;;1.05;;
60588;SDS011;46421;48.610;9.334;2024-02-23T14:37:17;1.47;;;0.57;;
60588;SDS011;46421;48.610;9.334;2024-02-23T14:39:43;4.55;;;0.90;;
60588;SDS011;46421;48.610;9.334;2024-02-23T14:42:08;2.10;;;0.50;;
60588;SDS011;46421;48.610;9.334;2024-02-23T14:44:34;1.70;;;0.73;;
60588;SDS011;46421;48.610;9.334;2024-02-23T14:47:01;1.35;;;0.45;;
60588;SDS011;46421;48.610;9.334;2024-02-23T14:49:27;2.35;;;0.60;;
60588;SDS011;46421;48.610;9.334;2024-02-23T14:51:52;1.90;;;0.43;;